Main page
METAR-TAF:

METAR-TAF

Airports :

Ankeny Regional Airport

Ankeny, Iowa, United States

latitude: 41-41-24N, longitude: 093-33-57W, elevation: 902 ft

Current weather observation

The report was made 39 minutes ago, at 19:35 UTC
Wind 10 mph from the Southeast
Temperature 75°F
Humidity 41%
Pressure 29.93 in. Hg
Visibility: 3 miles
Scattered clouds at a height of 9000 ft
light drizzle

METAR: KIKV 191935Z AUTO 13009KT 3SM -DZ SCT090 24/10 A2993 RMK AO2

Time: 15:14 (20:14 UTC)


TAF: missing

Weather observations and forecasts of more than 4000 airports (METAR and TAF reports).

The available stations are represented by yellow and red dots on the map.

Hover mouse over dot to see the name of the station.

Then click to see weather observations and forecasts.

To change the map : click on the green buttons with a black cross to zoom in, on the green button with a dash to zoom out, or on the green arrows for adjacent maps.


METAR-TAF: